Time;durP1;ratioP1;P1;durP2;ratioP2;P2;SDS_P1;SDS_P2;PMS_P1;PMS_P2;Temp;Humidity;BMP_temperature;BMP_pressure;BME280_temperature;BME280_humidity;BME280_pressure;Samples;Min_cycle;Max_cycle;Signal;HPM_P1;HPM_P2
2023/05/17 00:01:54;;;;;;;0.70;0.70;;;;;;;;;;5039265;28;20180;-81
2023/05/17 00:04:20;;;;;;;0.63;0.63;;;;;;;;;;5038675;28;20187;-82
2023/05/17 00:06:46;;;;;;;0.60;0.60;;;;;;;;;;5039547;28;20176;-83
2023/05/17 00:09:12;;;;;;;0.60;0.60;;;;;;;;;;5039596;28;20172;-82
2023/05/17 00:11:39;;;;;;;0.60;0.60;;;;;;;;;;5039424;28;20184;-82
2023/05/17 00:14:05;;;;;;;0.63;0.63;;;;;;;;;;5054420;28;20665;-83
2023/05/17 00:16:31;;;;;;;0.60;0.60;;;;;;;;;;5059384;28;20217;-81
2023/05/17 00:18:57;;;;;;;0.60;0.60;;;;;;;;;;5062462;28;20167;-80
2023/05/17 00:21:23;;;;;;;0.60;0.60;;;;;;;;;;5072056;28;20692;-80
2023/05/17 00:23:49;;;;;;;0.60;0.60;;;;;;;;;;5070509;28;20194;-79
2023/05/17 00:26:15;;;;;;;0.80;0.80;;;;;;;;;;5070927;28;20155;-79
2023/05/17 00:28:41;;;;;;;0.70;0.70;;;;;;;;;;5071274;28;20183;-79
2023/05/17 00:31:07;;;;;;;0.63;0.63;;;;;;;;;;5062948;28;20180;-81
2023/05/17 00:33:33;;;;;;;0.70;0.70;;;;;;;;;;5056584;28;20187;-81
2023/05/17 00:35:59;;;;;;;0.70;0.70;;;;;;;;;;5056902;28;20290;-80
2023/05/17 00:38:25;;;;;;;0.70;0.70;;;;;;;;;;5056065;28;20179;-82
2023/05/17 00:40:52;;;;;;;0.60;0.60;;;;;;;;;;5056488;28;20626;-80
2023/05/17 00:43:18;;;;;;;0.67;0.67;;;;;;;;;;5056273;28;20590;-80
2023/05/17 00:45:47;;;;;;;0.70;0.70;;;;;;;;;;5056745;28;20677;-82
2023/05/17 00:48:13;;;;;;;0.70;0.70;;;;;;;;;;5056658;28;20175;-81
2023/05/17 00:50:39;;;;;;;0.60;0.60;;;;;;;;;;5056582;28;20177;-82
2023/05/17 00:53:05;;;;;;;0.60;0.60;;;;;;;;;;5056104;28;20195;-80
2023/05/17 00:55:32;;;;;;;0.60;0.60;;;;;;;;;;5056551;28;20202;-80
2023/05/17 00:57:58;;;;;;;0.60;0.60;;;;;;;;;;5056145;28;20179;-80
2023/05/17 01:00:24;;;;;;;0.70;0.70;;;;;;;;;;5056196;28;20179;-80
2023/05/17 01:02:50;;;;;;;0.60;0.60;;;;;;;;;;5056279;28;20226;-80
2023/05/17 01:05:16;;;;;;;0.70;0.70;;;;;;;;;;5056123;28;20187;-79
2023/05/17 01:07:42;;;;;;;0.80;0.80;;;;;;;;;;5056367;28;20202;-82
2023/05/17 01:10:09;;;;;;;0.63;0.63;;;;;;;;;;5056183;28;20185;-81
2023/05/17 01:12:35;;;;;;;0.60;0.60;;;;;;;;;;5055616;28;20561;-80
2023/05/17 01:15:03;;;;;;;0.70;0.70;;;;;;;;;;5056464;28;20255;-80
2023/05/17 01:17:30;;;;;;;0.60;0.60;;;;;;;;;;5055915;28;20262;-79
2023/05/17 01:20:05;;;;;;;0.60;0.60;;;;;;;;;;5055773;28;20218;-81
2023/05/17 01:22:35;;;;;;;0.60;0.60;;;;;;;;;;5055519;28;20681;-81
2023/05/17 01:25:11;;;;;;;0.80;0.80;;;;;;;;;;5056195;28;20175;-80
2023/05/17 01:27:39;;;;;;;0.70;0.70;;;;;;;;;;5056401;28;20174;-81
2023/05/17 01:30:06;;;;;;;0.60;0.60;;;;;;;;;;5056203;28;20733;-82
2023/05/17 01:32:33;;;;;;;0.80;0.80;;;;;;;;;;5055556;28;20203;-81
2023/05/17 01:34:59;;;;;;;0.67;0.67;;;;;;;;;;5056396;28;20213;-81
2023/05/17 01:37:25;;;;;;;0.70;0.70;;;;;;;;;;5055707;28;20215;-80
2023/05/17 01:39:51;;;;;;;0.60;0.60;;;;;;;;;;5055885;28;20321;-81
2023/05/17 01:42:21;;;;;;;0.70;0.70;;;;;;;;;;5056120;28;20203;-81
2023/05/17 01:44:50;;;;;;;0.57;0.57;;;;;;;;;;5055829;28;20179;-81
2023/05/17 01:47:20;;;;;;;0.60;0.60;;;;;;;;;;5056236;28;20625;-81
2023/05/17 01:49:48;;;;;;;0.70;0.70;;;;;;;;;;5070301;28;20235;-79
2023/05/17 01:52:34;;;;;;;0.60;0.60;;;;;;;;;;5062075;28;20171;-82
2023/05/17 01:55:19;;;;;;;0.63;0.63;;;;;;;;;;5058380;28;20182;-81
2023/05/17 01:57:48;;;;;;;0.60;0.60;;;;;;;;;;5058735;28;20201;-81
2023/05/17 02:00:15;;;;;;;0.60;0.60;;;;;;;;;;5058813;28;20563;-81
2023/05/17 02:02:41;;;;;;;0.60;0.60;;;;;;;;;;5057880;28;20206;-81
2023/05/17 02:05:07;;;;;;;0.70;0.70;;;;;;;;;;5058142;28;20536;-81
2023/05/17 02:07:33;;;;;;;0.60;0.60;;;;;;;;;;5057572;28;20175;-82
2023/05/17 02:09:59;;;;;;;0.70;0.70;;;;;;;;;;5057718;28;20185;-80
2023/05/17 02:12:25;;;;;;;0.70;0.70;;;;;;;;;;5056858;28;20206;-81
2023/05/17 02:14:51;;;;;;;0.70;0.70;;;;;;;;;;5057509;28;20183;-81
2023/05/17 02:17:17;;;;;;;0.70;0.70;;;;;;;;;;5056243;28;20252;-81
2023/05/17 02:19:43;;;;;;;0.60;0.60;;;;;;;;;;5055843;28;20700;-81
2023/05/17 02:22:09;;;;;;;0.67;0.67;;;;;;;;;;5054985;28;20191;-81
2023/05/17 02:24:35;;;;;;;0.50;0.50;;;;;;;;;;5055912;28;20673;-81
2023/05/17 02:27:02;;;;;;;0.63;0.63;;;;;;;;;;5055353;28;20554;-80
2023/05/17 02:29:28;;;;;;;0.70;0.70;;;;;;;;;;5058120;28;20186;-81
2023/05/17 02:31:54;;;;;;;0.70;0.70;;;;;;;;;;5058718;28;20179;-82
2023/05/17 02:34:20;;;;;;;0.70;0.70;;;;;;;;;;5065688;28;20245;-79
2023/05/17 02:36:47;;;;;;;0.70;0.70;;;;;;;;;;5070932;28;20285;-79
2023/05/17 02:39:13;;;;;;;0.70;0.70;;;;;;;;;;5071748;28;20167;-79
2023/05/17 02:41:39;;;;;;;0.70;0.70;;;;;;;;;;5069599;28;20179;-80
2023/05/17 02:44:05;;;;;;;0.67;0.67;;;;;;;;;;5066950;28;20219;-79
2023/05/17 02:46:31;;;;;;;0.70;0.70;;;;;;;;;;5066627;28;20186;-80
2023/05/17 02:48:57;;;;;;;0.70;0.70;;;;;;;;;;5060818;28;20198;-82
2023/05/17 02:51:23;;;;;;;0.60;0.60;;;;;;;;;;5055797;28;20271;-81
2023/05/17 02:53:49;;;;;;;0.70;0.70;;;;;;;;;;5055459;28;21111;-80
2023/05/17 02:56:15;;;;;;;0.60;0.60;;;;;;;;;;5055471;28;20218;-80
2023/05/17 02:58:41;;;;;;;0.70;0.70;;;;;;;;;;5055245;28;20175;-81
2023/05/17 03:01:08;;;;;;;0.60;0.60;;;;;;;;;;5054783;28;20186;-80
2023/05/17 03:03:34;;;;;;;0.70;0.70;;;;;;;;;;5054523;28;20287;-81
2023/05/17 03:06:03;;;;;;;0.60;0.60;;;;;;;;;;5055003;28;20202;-80
2023/05/17 03:08:30;;;;;;;0.77;0.77;;;;;;;;;;5054685;28;20515;-83
2023/05/17 03:10:56;;;;;;;0.70;0.70;;;;;;;;;;5054278;28;20673;-79
2023/05/17 03:13:22;;;;;;;0.73;0.73;;;;;;;;;;5054031;28;20389;-81
2023/05/17 03:15:48;;;;;;;0.60;0.60;;;;;;;;;;5054388;28;20230;-80
2023/05/17 03:18:14;;;;;;;0.70;0.70;;;;;;;;;;5054943;28;20202;-81
2023/05/17 03:20:40;;;;;;;0.60;0.60;;;;;;;;;;5054444;28;20186;-81
2023/05/17 03:23:06;;;;;;;0.60;0.60;;;;;;;;;;5053609;28;20210;-80
2023/05/17 03:25:32;;;;;;;0.60;0.60;;;;;;;;;;5054797;28;20183;-80
2023/05/17 03:27:58;;;;;;;0.60;0.60;;;;;;;;;;5054590;28;20189;-80
2023/05/17 03:30:24;;;;;;;0.70;0.70;;;;;;;;;;5054439;28;20831;-80
2023/05/17 03:32:50;;;;;;;0.60;0.60;;;;;;;;;;5053521;28;20686;-80
2023/05/17 03:35:16;;;;;;;0.50;0.50;;;;;;;;;;5054381;28;20637;-80
2023/05/17 03:37:42;;;;;;;0.80;0.80;;;;;;;;;;5054526;28;20187;-80
2023/05/17 03:40:08;;;;;;;0.70;0.70;;;;;;;;;;5054528;28;20816;-81
2023/05/17 03:42:34;;;;;;;0.70;0.70;;;;;;;;;;5053452;28;20312;-81
2023/05/17 03:45:00;;;;;;;0.60;0.60;;;;;;;;;;5054305;28;20680;-81
2023/05/17 03:47:26;;;;;;;0.63;0.63;;;;;;;;;;5055152;28;20237;-81
2023/05/17 03:49:52;;;;;;;0.60;0.60;;;;;;;;;;5059822;28;20179;-79
2023/05/17 03:52:18;;;;;;;0.60;0.60;;;;;;;;;;5072763;28;20292;-80
2023/05/17 03:54:44;;;;;;;0.70;0.70;;;;;;;;;;5075971;28;20227;-80
2023/05/17 03:57:10;;;;;;;0.70;0.70;;;;;;;;;;5062586;28;20222;-79
2023/05/17 03:59:36;;;;;;;0.70;0.70;;;;;;;;;;5057669;28;20171;-79
2023/05/17 04:02:02;;;;;;;0.70;0.70;;;;;;;;;;5053505;28;20179;-80
2023/05/17 04:04:28;;;;;;;0.70;0.70;;;;;;;;;;5054084;28;20661;-80
2023/05/17 04:06:54;;;;;;;0.70;0.70;;;;;;;;;;5054203;28;20188;-80
2023/05/17 04:09:20;;;;;;;0.70;0.70;;;;;;;;;;5053980;28;20176;-81
2023/05/17 04:11:46;;;;;;;0.60;0.60;;;;;;;;;;5053935;28;20266;-79
2023/05/17 04:14:12;;;;;;;0.50;0.50;;;;;;;;;;5055973;28;20253;-80
2023/05/17 04:16:38;;;;;;;0.70;0.70;;;;;;;;;;5057432;28;20206;-81
2023/05/17 04:19:04;;;;;;;0.60;0.60;;;;;;;;;;5057692;28;20187;-80
2023/05/17 04:21:30;;;;;;;0.70;0.70;;;;;;;;;;5057169;28;20195;-80
2023/05/17 04:23:56;;;;;;;0.70;0.70;;;;;;;;;;5056895;28;20203;-79
2023/05/17 04:26:22;;;;;;;0.60;0.60;;;;;;;;;;5057128;28;20248;-81
2023/05/17 04:28:48;;;;;;;0.70;0.70;;;;;;;;;;5057280;28;20645;-80
2023/05/17 04:31:15;;;;;;;0.70;0.70;;;;;;;;;;5044381;28;20183;-79
2023/05/17 04:33:42;;;;;;;0.70;0.70;;;;;;;;;;5036411;28;20192;-81
2023/05/17 04:36:08;;;;;;;0.70;0.70;;;;;;;;;;5037352;28;20207;-80
2023/05/17 04:38:34;;;;;;;0.63;0.63;;;;;;;;;;5037089;28;20184;-80
2023/05/17 04:41:03;;;;;;;0.60;0.60;;;;;;;;;;5036827;28;20175;-80
2023/05/17 04:43:29;;;;;;;0.80;0.80;;;;;;;;;;5036437;28;20200;-85
2023/05/17 04:45:56;;;;;;;0.70;0.70;;;;;;;;;;5036790;28;20176;-80
2023/05/17 04:48:23;;;;;;;0.60;0.60;;;;;;;;;;5036306;28;20179;-79
2023/05/17 04:50:49;;;;;;;0.60;0.60;;;;;;;;;;5036699;28;20261;-79
2023/05/17 04:53:15;;;;;;;0.60;0.60;;;;;;;;;;5036219;28;20254;-80
2023/05/17 04:55:41;;;;;;;0.70;0.70;;;;;;;;;;5036176;28;20287;-80
2023/05/17 04:58:08;;;;;;;0.70;0.70;;;;;;;;;;5036223;28;20211;-82
2023/05/17 05:00:34;;;;;;;0.60;0.60;;;;;;;;;;5039099;28;20168;-79
2023/05/17 05:03:00;;;;;;;0.50;0.50;;;;;;;;;;5040563;28;20282;-79
2023/05/17 05:05:26;;;;;;;0.53;0.53;;;;;;;;;;5040989;28;20217;-79
2023/05/17 05:07:52;;;;;;;0.57;0.57;;;;;;;;;;5040860;28;20203;-79
2023/05/17 05:10:18;;;;;;;0.53;0.53;;;;;;;;;;5041077;28;20225;-79
2023/05/17 05:12:44;;;;;;;0.60;0.60;;;;;;;;;;5039408;28;20211;-80
2023/05/17 05:15:11;;;;;;;0.63;0.63;;;;;;;;;;5037725;28;20172;-81
2023/05/17 05:17:36;;;;;;;0.60;0.60;;;;;;;;;;5037229;28;20612;-81
2023/05/17 05:20:03;;;;;;;0.50;0.50;;;;;;;;;;5037391;28;20222;-80
2023/05/17 05:22:28;;;;;;;0.60;0.60;;;;;;;;;;5036325;28;20227;-80
2023/05/17 05:24:55;;;;;;;0.50;0.50;;;;;;;;;;5036116;28;20180;-82
2023/05/17 05:27:21;;;;;;;0.60;0.60;;;;;;;;;;5036636;28;20599;-82
2023/05/17 05:29:47;;;;;;;0.50;0.50;;;;;;;;;;5036564;28;20191;-81
2023/05/17 05:32:14;;;;;;;0.50;0.50;;;;;;;;;;5035767;28;20691;-82
2023/05/17 05:34:42;;;;;;;0.50;0.50;;;;;;;;;;5042298;28;20507;-81
2023/05/17 05:37:08;;;;;;;0.50;0.50;;;;;;;;;;5056627;28;20585;-84
2023/05/17 05:39:34;;;;;;;0.40;0.40;;;;;;;;;;5045210;28;20183;-81
2023/05/17 05:42:03;;;;;;;0.50;0.50;;;;;;;;;;5045145;28;20202;-81
2023/05/17 05:44:29;;;;;;;0.43;0.43;;;;;;;;;;5035414;28;20183;-81
2023/05/17 05:46:55;;;;;;;0.50;0.50;;;;;;;;;;5041353;28;20222;-81
2023/05/17 05:49:21;;;;;;;0.53;0.53;;;;;;;;;;5041842;28;20655;-82
2023/05/17 05:51:47;;;;;;;0.50;0.50;;;;;;;;;;5042829;28;20556;-81
2023/05/17 05:54:13;;;;;;;0.70;0.70;;;;;;;;;;5054303;28;20195;-81
2023/05/17 05:56:40;;;;;;;0.50;0.50;;;;;;;;;;5053648;28;20218;-81
2023/05/17 05:59:06;;;;;;;0.50;0.50;;;;;;;;;;5054607;28;20266;-81
2023/05/17 06:01:32;;;;;;;0.50;0.50;;;;;;;;;;5052691;28;20235;-83
2023/05/17 06:03:58;;;;;;;0.60;0.60;;;;;;;;;;5054014;28;20195;-82
2023/05/17 06:06:24;;;;;;;0.60;0.60;;;;;;;;;;5054475;28;20178;-80
2023/05/17 06:08:50;;;;;;;0.50;0.50;;;;;;;;;;5054956;28;20178;-80
2023/05/17 06:11:17;;;;;;;0.50;0.50;;;;;;;;;;5053784;28;20613;-81
2023/05/17 06:13:43;;;;;;;0.60;0.60;;;;;;;;;;5054008;28;20183;-82
2023/05/17 06:16:09;;;;;;;0.60;0.60;;;;;;;;;;5054404;28;20217;-83
2023/05/17 06:18:35;;;;;;;0.57;0.57;;;;;;;;;;5054027;28;20236;-81
2023/05/17 06:21:01;;;;;;;0.60;0.60;;;;;;;;;;5052085;28;20206;-81
2023/05/17 06:23:27;;;;;;;0.50;0.50;;;;;;;;;;5041221;28;20558;-81
2023/05/17 06:25:53;;;;;;;0.50;0.50;;;;;;;;;;5034671;28;20171;-82
2023/05/17 06:28:19;;;;;;;0.47;0.47;;;;;;;;;;5039378;28;20183;-80
2023/05/17 06:30:45;;;;;;;0.50;0.50;;;;;;;;;;5036962;28;20203;-81
2023/05/17 06:33:11;;;;;;;0.50;0.50;;;;;;;;;;5046480;28;20198;-80
2023/05/17 06:35:37;;;;;;;0.57;0.57;;;;;;;;;;5048998;28;20186;-81
2023/05/17 06:38:03;;;;;;;0.50;0.50;;;;;;;;;;5048927;28;20249;-80
2023/05/17 06:40:30;;;;;;;0.50;0.50;;;;;;;;;;5044124;28;20187;-82
2023/05/17 06:42:56;;;;;;;0.53;0.53;;;;;;;;;;5045665;28;20253;-81
2023/05/17 06:45:22;;;;;;;0.60;0.60;;;;;;;;;;5049244;28;20245;-80
2023/05/17 06:47:48;;;;;;;0.60;0.60;;;;;;;;;;5046719;28;20183;-81
2023/05/17 06:50:14;;;;;;;0.50;0.50;;;;;;;;;;5043920;28;20183;-80
2023/05/17 06:52:40;;;;;;;0.50;0.50;;;;;;;;;;5048071;28;20203;-82
2023/05/17 06:55:06;;;;;;;0.57;0.57;;;;;;;;;;5047949;28;20236;-81
2023/05/17 06:57:32;;;;;;;0.50;0.50;;;;;;;;;;5044881;28;20633;-80
2023/05/17 06:59:58;;;;;;;0.53;0.53;;;;;;;;;;5043064;28;20179;-81
2023/05/17 07:02:24;;;;;;;0.40;0.40;;;;;;;;;;5038844;28;20206;-81
2023/05/17 07:04:50;;;;;;;0.70;0.70;;;;;;;;;;5033672;28;20243;-79
2023/05/17 07:07:16;;;;;;;0.50;0.50;;;;;;;;;;5034063;28;20180;-82
2023/05/17 07:09:42;;;;;;;0.50;0.50;;;;;;;;;;5033251;28;20186;-82
2023/05/17 07:12:08;;;;;;;0.70;0.70;;;;;;;;;;5033796;28;20179;-81
2023/05/17 07:14:34;;;;;;;0.60;0.60;;;;;;;;;;5032461;28;20172;-80
2023/05/17 07:17:00;;;;;;;0.40;0.40;;;;;;;;;;5032805;28;20215;-78
2023/05/17 07:19:26;;;;;;;0.40;0.40;;;;;;;;;;5032445;28;20198;-80
2023/05/17 07:21:52;;;;;;;0.40;0.40;;;;;;;;;;5033211;28;20251;-78
2023/05/17 07:24:18;;;;;;;0.40;0.40;;;;;;;;;;5033434;28;20230;-79
2023/05/17 07:26:45;;;;;;;0.50;0.50;;;;;;;;;;5033892;28;20200;-80
2023/05/17 07:29:11;;;;;;;0.50;0.50;;;;;;;;;;5034509;28;20278;-78
2023/05/17 07:31:37;;;;;;;0.40;0.40;;;;;;;;;;5039554;28;20237;-78
2023/05/17 07:34:04;;;;;;;0.50;0.50;;;;;;;;;;5045005;28;20610;-79
2023/05/17 07:36:30;;;;;;;0.40;0.40;;;;;;;;;;5035785;28;20587;-78
2023/05/17 07:38:56;;;;;;;0.50;0.50;;;;;;;;;;5036814;28;20207;-78
2023/05/17 07:41:22;;;;;;;0.40;0.40;;;;;;;;;;5038670;28;20184;-78
2023/05/17 07:43:49;;;;;;;0.40;0.40;;;;;;;;;;5038430;28;20211;-80
2023/05/17 07:46:15;;;;;;;0.50;0.50;;;;;;;;;;5035538;28;20188;-79
2023/05/17 07:48:41;;;;;;;0.40;0.40;;;;;;;;;;5035949;28;20270;-79
2023/05/17 07:51:07;;;;;;;0.30;0.30;;;;;;;;;;5037670;28;20182;-79
2023/05/17 07:53:33;;;;;;;0.40;0.40;;;;;;;;;;5036417;28;20215;-79
2023/05/17 07:55:59;;;;;;;0.33;0.33;;;;;;;;;;5037128;28;20230;-78
2023/05/17 07:58:25;;;;;;;0.40;0.40;;;;;;;;;;5037681;28;20172;-79
2023/05/17 08:00:51;;;;;;;0.50;0.50;;;;;;;;;;5037414;28;20206;-79
2023/05/17 08:03:17;;;;;;;0.50;0.50;;;;;;;;;;5035964;28;20220;-79
2023/05/17 08:05:43;;;;;;;0.40;0.40;;;;;;;;;;5037194;28;20180;-79
2023/05/17 08:08:09;;;;;;;0.50;0.50;;;;;;;;;;5037066;28;20218;-79
2023/05/17 08:10:36;;;;;;;0.50;0.50;;;;;;;;;;5037029;28;20184;-80
2023/05/17 08:13:03;;;;;;;0.50;0.50;;;;;;;;;;5035600;28;20283;-79
2023/05/17 08:15:29;;;;;;;0.30;0.30;;;;;;;;;;5036366;28;20188;-88
2023/05/17 08:17:55;;;;;;;0.50;0.50;;;;;;;;;;5037322;28;20235;-80
2023/05/17 08:20:21;;;;;;;0.50;0.50;;;;;;;;;;5037004;28;20655;-81
2023/05/17 08:22:47;;;;;;;0.40;0.40;;;;;;;;;;5036149;28;20250;-80
2023/05/17 08:25:13;;;;;;;0.40;0.40;;;;;;;;;;5036825;28;20615;-80
2023/05/17 08:27:40;;;;;;;0.30;0.30;;;;;;;;;;5037388;28;20195;-82
2023/05/17 08:30:06;;;;;;;0.40;0.40;;;;;;;;;;5035847;28;20230;-80
2023/05/17 08:32:32;;;;;;;0.30;0.30;;;;;;;;;;5036122;28;20230;-83
2023/05/17 08:34:58;;;;;;;0.30;0.30;;;;;;;;;;5035337;28;20215;-80
2023/05/17 08:37:24;;;;;;;0.50;0.50;;;;;;;;;;5036124;28;20679;-83
2023/05/17 08:39:50;;;;;;;0.37;0.37;;;;;;;;;;5036742;28;20263;-82
2023/05/17 08:42:24;;;;;;;0.40;0.40;;;;;;;;;;5037739;28;20215;-81
2023/05/17 08:44:50;;;;;;;0.40;0.40;;;;;;;;;;5041658;28;20176;-81
2023/05/17 08:47:24;;;;;;;0.50;0.50;;;;;;;;;;5047346;28;20195;-81
2023/05/17 08:49:51;;;;;;;0.40;0.40;;;;;;;;;;5055485;28;20642;-81
2023/05/17 08:52:17;;;;;;;0.40;0.40;;;;;;;;;;5052629;28;20579;-82
2023/05/17 08:54:43;;;;;;;0.40;0.40;;;;;;;;;;5049688;28;20179;-82
2023/05/17 08:57:10;;;;;;;0.40;0.40;;;;;;;;;;5047856;28;20211;-81
2023/05/17 08:59:36;;;;;;;0.40;0.40;;;;;;;;;;5048719;28;20175;-81
2023/05/17 09:02:04;;;;;;;0.50;0.50;;;;;;;;;;5053850;28;20183;-82
2023/05/17 09:04:30;;;;;;;0.40;0.40;;;;;;;;;;5041925;28;20270;-81
2023/05/17 09:06:57;;;;;;;0.40;0.40;;;;;;;;;;5044711;28;20213;-82
2023/05/17 09:09:23;;;;;;;0.50;0.50;;;;;;;;;;5047306;28;20179;-81
2023/05/17 09:11:49;;;;;;;0.40;0.40;;;;;;;;;;5055132;28;20194;-81
2023/05/17 09:14:18;;;;;;;0.43;0.43;;;;;;;;;;5050937;28;20218;-82
2023/05/17 09:16:44;;;;;;;0.40;0.40;;;;;;;;;;5046174;28;20203;-82
2023/05/17 09:19:14;;;;;;;0.50;0.50;;;;;;;;;;5048079;28;20207;-80
2023/05/17 09:21:40;;;;;;;0.40;0.40;;;;;;;;;;5048636;28;20199;-77
2023/05/17 09:24:06;;;;;;;0.30;0.30;;;;;;;;;;5064161;28;20191;-79
2023/05/17 09:26:39;;;;;;;0.40;0.40;;;;;;;;;;5053912;28;20233;-80
2023/05/17 09:29:12;;;;;;;0.40;0.40;;;;;;;;;;5058529;28;20190;-79
2023/05/17 09:31:38;;;;;;;0.30;0.30;;;;;;;;;;5063980;28;20168;-82
2023/05/17 09:34:06;;;;;;;0.40;0.40;;;;;;;;;;5040418;28;20558;-82
2023/05/17 09:36:32;;;;;;;0.40;0.40;;;;;;;;;;5045747;28;20214;-82
2023/05/17 09:39:00;;;;;;;0.40;0.40;;;;;;;;;;5046593;28;20192;-81
2023/05/17 09:41:27;;;;;;;0.40;0.40;;;;;;;;;;5046144;28;20207;-85
2023/05/17 09:43:53;;;;;;;0.47;0.47;;;;;;;;;;5043405;28;20202;-81
2023/05/17 09:46:19;;;;;;;0.40;0.40;;;;;;;;;;5047899;28;20180;-81
2023/05/17 09:48:52;;;;;;;0.40;0.40;;;;;;;;;;5037585;28;20322;-81
2023/05/17 09:51:18;;;;;;;0.50;0.50;;;;;;;;;;5054824;28;20175;-81
2023/05/17 09:53:44;;;;;;;0.30;0.30;;;;;;;;;;5065305;28;20579;-80
2023/05/17 09:56:10;;;;;;;0.40;0.40;;;;;;;;;;5067732;28;20204;-80
2023/05/17 09:58:37;;;;;;;0.50;0.50;;;;;;;;;;5053800;28;20217;-83
2023/05/17 10:01:04;;;;;;;0.33;0.33;;;;;;;;;;5057906;28;20176;-80
2023/05/17 10:03:32;;;;;;;0.50;0.50;;;;;;;;;;5051410;28;20192;-82
2023/05/17 10:05:58;;;;;;;0.40;0.40;;;;;;;;;;5038998;28;20248;-83
2023/05/17 10:08:26;;;;;;;0.40;0.40;;;;;;;;;;5038624;28;20259;-84
2023/05/17 10:10:56;;;;;;;0.40;0.40;;;;;;;;;;5038058;28;20217;-84
2023/05/17 10:13:24;;;;;;;0.50;0.50;;;;;;;;;;5045358;28;20265;-83
2023/05/17 10:15:51;;;;;;;0.50;0.50;;;;;;;;;;5046775;28;20175;-83
2023/05/17 10:18:17;;;;;;;0.60;0.60;;;;;;;;;;5049323;28;20326;-84
2023/05/17 10:20:43;;;;;;;0.50;0.50;;;;;;;;;;5048599;28;20180;-83
2023/05/17 10:23:10;;;;;;;0.50;0.50;;;;;;;;;;5054004;28;20299;-81
2023/05/17 10:25:37;;;;;;;0.40;0.40;;;;;;;;;;5047758;28;20221;-82
2023/05/17 10:28:05;;;;;;;0.40;0.40;;;;;;;;;;5057844;28;20185;-83
2023/05/17 10:30:32;;;;;;;0.40;0.40;;;;;;;;;;5055536;28;20191;-83
2023/05/17 10:32:59;;;;;;;0.53;0.53;;;;;;;;;;5057676;28;20462;-81
2023/05/17 10:35:27;;;;;;;0.50;0.50;;;;;;;;;;5067512;28;20197;-81
2023/05/17 10:37:53;;;;;;;0.40;0.40;;;;;;;;;;5066568;28;20198;-84
2023/05/17 10:40:20;;;;;;;0.50;0.50;;;;;;;;;;5063995;28;20226;-83
2023/05/17 10:42:50;;;;;;;0.50;0.50;;;;;;;;;;5061813;28;20213;-83
2023/05/17 10:45:16;;;;;;;0.40;0.40;;;;;;;;;;5070256;28;20199;-80
2023/05/17 10:47:44;;;;;;;0.40;0.40;;;;;;;;;;5055858;28;20164;-79
2023/05/17 10:50:12;;;;;;;0.57;0.57;;;;;;;;;;5068729;28;20205;-80
2023/05/17 10:52:38;;;;;;;0.40;0.40;;;;;;;;;;5056991;28;20231;-80
2023/05/17 10:55:07;;;;;;;0.60;0.60;;;;;;;;;;5041471;28;20167;-83
2023/05/17 10:57:37;;;;;;;0.50;0.50;;;;;;;;;;5033123;28;20204;-82
2023/05/17 11:00:06;;;;;;;0.40;0.40;;;;;;;;;;5046091;28;20540;-84
2023/05/17 11:02:32;;;;;;;0.40;0.40;;;;;;;;;;5038612;28;20219;-83
2023/05/17 11:04:59;;;;;;;0.60;0.60;;;;;;;;;;5033595;28;20180;-82
2023/05/17 11:07:26;;;;;;;0.50;0.50;;;;;;;;;;5034858;28;20183;-82
2023/05/17 11:09:54;;;;;;;0.37;0.37;;;;;;;;;;5035197;28;20686;-83
2023/05/17 11:12:34;;;;;;;0.47;0.47;;;;;;;;;;5033253;28;20669;-79
2023/05/17 11:15:01;;;;;;;0.43;0.43;;;;;;;;;;5034076;28;20179;-82
2023/05/17 11:17:34;;;;;;;0.40;0.40;;;;;;;;;;5032922;28;20243;-82
2023/05/17 11:20:09;;;;;;;0.50;0.50;;;;;;;;;;5044604;28;20183;-81
2023/05/17 11:22:36;;;;;;;0.40;0.40;;;;;;;;;;5046888;28;20225;-80
2023/05/17 11:25:06;;;;;;;0.50;0.50;;;;;;;;;;5040089;28;20164;-81
2023/05/17 11:27:45;;;;;;;0.47;0.47;;;;;;;;;;5056359;28;20198;-82
2023/05/17 11:30:21;;;;;;;0.40;0.40;;;;;;;;;;5056445;28;20672;-81
2023/05/17 11:32:49;;;;;;;0.40;0.40;;;;;;;;;;5056228;28;20256;-82
2023/05/17 11:35:16;;;;;;;0.40;0.40;;;;;;;;;;5056132;28;20183;-80
2023/05/17 11:37:43;;;;;;;0.50;0.50;;;;;;;;;;5056066;28;20382;-82
2023/05/17 11:40:11;;;;;;;0.47;0.47;;;;;;;;;;5056445;28;20179;-81
2023/05/17 11:42:38;;;;;;;0.40;0.40;;;;;;;;;;5056679;28;20285;-82
2023/05/17 11:45:04;;;;;;;0.50;0.50;;;;;;;;;;5055453;28;20167;-81
2023/05/17 11:47:31;;;;;;;0.50;0.50;;;;;;;;;;5056853;28;20653;-82
2023/05/17 11:50:00;;;;;;;0.40;0.40;;;;;;;;;;5056547;28;20179;-80
2023/05/17 11:52:29;;;;;;;0.40;0.40;;;;;;;;;;5055777;28;20205;-80
2023/05/17 11:54:56;;;;;;;0.30;0.30;;;;;;;;;;5055752;28;20184;-82
2023/05/17 11:57:29;;;;;;;0.30;0.30;;;;;;;;;;5055839;28;20584;-83
2023/05/17 12:00:04;;;;;;;0.40;0.40;;;;;;;;;;5037965;28;20195;-83
2023/05/17 12:02:30;;;;;;;0.30;0.30;;;;;;;;;;5044059;28;20269;-78
2023/05/17 12:04:57;;;;;;;0.40;0.40;;;;;;;;;;5046189;28;20171;-80
2023/05/17 12:07:24;;;;;;;0.30;0.30;;;;;;;;;;5055329;28;20175;-83
2023/05/17 12:09:51;;;;;;;0.40;0.40;;;;;;;;;;5044251;28;20500;-85
2023/05/17 12:12:20;;;;;;;0.50;0.50;;;;;;;;;;5045408;28;20265;-84
2023/05/17 12:14:47;;;;;;;0.40;0.40;;;;;;;;;;5047393;28;20213;-81
2023/05/17 12:17:19;;;;;;;0.50;0.50;;;;;;;;;;5051029;28;20211;-82
2023/05/17 12:19:45;;;;;;;0.40;0.40;;;;;;;;;;5044608;28;20178;-81
2023/05/17 12:22:11;;;;;;;0.40;0.40;;;;;;;;;;5047600;28;20191;-78
2023/05/17 12:24:38;;;;;;;0.40;0.40;;;;;;;;;;5048848;28;20186;-81
2023/05/17 12:27:04;;;;;;;0.50;0.50;;;;;;;;;;5045721;28;20179;-82
2023/05/17 12:29:30;;;;;;;0.43;0.43;;;;;;;;;;5043035;28;20703;-83
2023/05/17 12:31:57;;;;;;;0.30;0.30;;;;;;;;;;5036511;28;20191;-85
2023/05/17 12:34:23;;;;;;;0.50;0.50;;;;;;;;;;5049118;28;20177;-83
2023/05/17 12:36:51;;;;;;;0.40;0.40;;;;;;;;;;5047495;28;20249;-83
2023/05/17 12:39:22;;;;;;;0.33;0.33;;;;;;;;;;5043314;28;20183;-83
2023/05/17 12:41:49;;;;;;;0.40;0.40;;;;;;;;;;5051982;28;20179;-81
2023/05/17 12:44:15;;;;;;;0.40;0.40;;;;;;;;;;5053691;28;20206;-82
2023/05/17 12:46:41;;;;;;;0.40;0.40;;;;;;;;;;5055297;28;20547;-83
2023/05/17 12:49:08;;;;;;;0.40;0.40;;;;;;;;;;5043578;28;20172;-82
2023/05/17 12:51:43;;;;;;;0.40;0.40;;;;;;;;;;5052130;28;20178;-81
2023/05/17 12:54:09;;;;;;;0.50;0.50;;;;;;;;;;5054496;28;20202;-82
2023/05/17 12:56:35;;;;;;;0.40;0.40;;;;;;;;;;5054784;28;20677;-83
2023/05/17 12:59:04;;;;;;;0.30;0.30;;;;;;;;;;5053445;28;20538;-81
2023/05/17 13:01:37;;;;;;;0.50;0.50;;;;;;;;;;5036406;28;21024;-82
2023/05/17 13:04:03;;;;;;;0.50;0.50;;;;;;;;;;5043196;28;20199;-82
2023/05/17 13:06:29;;;;;;;0.40;0.40;;;;;;;;;;5054430;28;20181;-83
2023/05/17 13:08:59;;;;;;;0.40;0.40;;;;;;;;;;5068555;28;20198;-82
2023/05/17 13:11:25;;;;;;;0.60;0.60;;;;;;;;;;5047637;28;20214;-81
2023/05/17 13:13:51;;;;;;;0.53;0.53;;;;;;;;;;5051448;28;20608;-82
2023/05/17 13:16:17;;;;;;;0.50;0.50;;;;;;;;;;5054460;28;20275;-84
2023/05/17 13:18:47;;;;;;;0.50;0.50;;;;;;;;;;5072927;28;20178;-84
2023/05/17 13:21:13;;;;;;;0.40;0.40;;;;;;;;;;5073891;28;20198;-82
2023/05/17 13:23:43;;;;;;;0.43;0.43;;;;;;;;;;5068348;28;20194;-84
2023/05/17 13:26:09;;;;;;;0.30;0.30;;;;;;;;;;5057563;28;20183;-82
2023/05/17 13:28:35;;;;;;;0.53;0.53;;;;;;;;;;5072128;28;20179;-82
2023/05/17 13:31:01;;;;;;;0.40;0.40;;;;;;;;;;5068299;28;20203;-82
2023/05/17 13:33:27;;;;;;;0.40;0.40;;;;;;;;;;5061301;28;20194;-82
2023/05/17 13:35:54;;;;;;;0.40;0.40;;;;;;;;;;5056696;28;20201;-82
2023/05/17 13:38:20;;;;;;;0.50;0.50;;;;;;;;;;5071396;28;20193;-83
2023/05/17 13:40:46;;;;;;;0.40;0.40;;;;;;;;;;5080454;28;20269;-84
2023/05/17 13:43:13;;;;;;;0.47;0.47;;;;;;;;;;5077096;28;20221;-82
2023/05/17 13:45:39;;;;;;;0.40;0.40;;;;;;;;;;5075373;28;20182;-81
2023/05/17 13:48:05;;;;;;;0.40;0.40;;;;;;;;;;5075510;28;20182;-82
2023/05/17 13:50:31;;;;;;;0.37;0.37;;;;;;;;;;5076108;28;20494;-82
2023/05/17 13:52:58;;;;;;;0.40;0.40;;;;;;;;;;5074846;28;20510;-82
2023/05/17 13:55:24;;;;;;;0.40;0.40;;;;;;;;;;5075017;28;20339;-81
2023/05/17 13:57:50;;;;;;;0.40;0.40;;;;;;;;;;5074712;28;20210;-81
2023/05/17 14:00:16;;;;;;;0.40;0.40;;;;;;;;;;5073411;28;20175;-82
2023/05/17 14:02:42;;;;;;;0.50;0.50;;;;;;;;;;5072636;28;20202;-82
2023/05/17 14:05:08;;;;;;;0.50;0.50;;;;;;;;;;5074077;28;20228;-81
2023/05/17 14:07:40;;;;;;;0.50;0.50;;;;;;;;;;5074165;28;20242;-82
2023/05/17 14:10:06;;;;;;;0.43;0.43;;;;;;;;;;5075544;28;20171;-82
2023/05/17 14:12:32;;;;;;;0.40;0.40;;;;;;;;;;5073579;28;20202;-81
2023/05/17 14:14:58;;;;;;;0.40;0.40;;;;;;;;;;5074251;28;20375;-82
2023/05/17 14:17:24;;;;;;;0.60;0.60;;;;;;;;;;5039132;28;20219;-82
2023/05/17 14:19:50;;;;;;;0.57;0.57;;;;;;;;;;5046786;28;20175;-82
2023/05/17 14:22:16;;;;;;;0.50;0.50;;;;;;;;;;5053489;28;20581;-82
2023/05/17 14:24:42;;;;;;;0.40;0.40;;;;;;;;;;5054171;28;20186;-82
2023/05/17 14:27:08;;;;;;;0.60;0.60;;;;;;;;;;5054406;28;20237;-81
2023/05/17 14:29:34;;;;;;;0.40;0.40;;;;;;;;;;5053870;28;20712;-82
2023/05/17 14:32:00;;;;;;;0.40;0.40;;;;;;;;;;5053089;28;20178;-82
2023/05/17 14:34:26;;;;;;;0.50;0.50;;;;;;;;;;5053686;28;20179;-82
2023/05/17 14:36:52;;;;;;;0.50;0.50;;;;;;;;;;5053720;28;20269;-81
2023/05/17 14:39:18;;;;;;;0.50;0.50;;;;;;;;;;5053814;28;20167;-82
2023/05/17 14:41:45;;;;;;;0.50;0.50;;;;;;;;;;5054293;28;20721;-81